sensor_id;sensor_type;location;lat;lon;timestamp;pressure;altitude;pressure_sealevel;temperature;humidity
43681;BME280;29281;50.356;30.894;2023-11-21T00:00:39;99754.71;;;0.34;100.00
43681;BME280;29281;50.356;30.894;2023-11-21T00:01:43;99757.13;;;0.40;100.00
43681;BME280;29281;50.356;30.894;2023-11-21T00:02:47;99757.23;;;0.37;100.00
43681;BME280;29281;50.356;30.894;2023-11-21T00:03:50;99757.50;;;0.29;100.00
43681;BME280;29281;50.356;30.894;2023-11-21T00:04:55;99760.44;;;0.19;100.00
43681;BME280;29281;50.356;30.894;2023-11-21T00:05:58;99765.71;;;0.17;100.00
43681;BME280;29281;50.356;30.894;2023-11-21T00:07:02;99766.42;;;0.22;100.00
43681;BME280;29281;50.356;30.894;2023-11-21T00:08:04;99764.93;;;0.15;100.00
43681;BME280;29281;50.356;30.894;2023-11-21T00:09:08;99767.55;;;0.15;100.00
43681;BME280;29281;50.356;30.894;2023-11-21T00:10:14;99764.98;;;0.14;100.00
43681;BME280;29281;50.356;30.894;2023-11-21T00:11:41;99762.73;;;0.02;100.00
43681;BME280;29281;50.356;30.894;2023-11-21T00:12:45;99766.69;;;-0.13;100.00
43681;BME280;29281;50.356;30.894;2023-11-21T00:13:50;99757.45;;;-0.23;100.00
43681;BME280;29281;50.356;30.894;2023-11-21T00:14:52;99760.10;;;-0.25;100.00
43681;BME280;29281;50.356;30.894;2023-11-21T00:16:00;99759.92;;;-0.19;100.00
43681;BME280;29281;50.356;30.894;2023-11-21T00:17:03;99754.03;;;-0.25;100.00
43681;BME280;29281;50.356;30.894;2023-11-21T00:18:08;99751.72;;;-0.34;100.00
43681;BME280;29281;50.356;30.894;2023-11-21T00:19:13;99761.34;;;-0.37;100.00
43681;BME280;29281;50.356;30.894;2023-11-21T00:20:16;99754.16;;;-0.30;100.00
43681;BME280;29281;50.356;30.894;2023-11-21T00:21:21;99749.06;;;-0.33;100.00
43681;BME280;29281;50.356;30.894;2023-11-21T00:22:24;99752.74;;;-0.40;100.00
43681;BME280;29281;50.356;30.894;2023-11-21T00:23:28;99759.59;;;-0.36;100.00
43681;BME280;29281;50.356;30.894;2023-11-21T00:24:32;99746.55;;;-0.36;100.00
43681;BME280;29281;50.356;30.894;2023-11-21T00:25:37;99756.17;;;-0.38;100.00
43681;BME280;29281;50.356;30.894;2023-11-21T00:26:40;99760.48;;;-0.37;100.00
43681;BME280;29281;50.356;30.894;2023-11-21T00:27:44;99753.55;;;-0.38;100.00
43681;BME280;29281;50.356;30.894;2023-11-21T00:28:48;99758.81;;;-0.40;100.00
43681;BME280;29281;50.356;30.894;2023-11-21T00:29:52;99759.59;;;-0.36;100.00
43681;BME280;29281;50.356;30.894;2023-11-21T00:30:54;99760.48;;;-0.37;100.00
43681;BME280;29281;50.356;30.894;2023-11-21T00:31:58;99771.01;;;-0.40;100.00
43681;BME280;29281;50.356;30.894;2023-11-21T00:33:02;99764.03;;;-0.40;100.00
43681;BME280;29281;50.356;30.894;2023-11-21T00:34:13;99768.27;;;-0.36;100.00
43681;BME280;29281;50.356;30.894;2023-11-21T00:35:17;99770.28;;;-0.45;100.00
43681;BME280;29281;50.356;30.894;2023-11-21T00:36:20;99774.64;;;-0.46;100.00
43681;BME280;29281;50.356;30.894;2023-11-21T00:37:23;99767.83;;;-0.50;100.00
43681;BME280;29281;50.356;30.894;2023-11-21T00:38:29;99772.28;;;-0.53;100.00
43681;BME280;29281;50.356;30.894;2023-11-21T00:39:33;99768.69;;;-0.49;100.00
43681;BME280;29281;50.356;30.894;2023-11-21T00:40:39;99764.58;;;-0.58;100.00
43681;BME280;29281;50.356;30.894;2023-11-21T00:41:42;99767.27;;;-0.61;100.00
43681;BME280;29281;50.356;30.894;2023-11-21T00:42:47;99764.01;;;-0.67;100.00
43681;BME280;29281;50.356;30.894;2023-11-21T00:43:52;99770.03;;;-0.65;100.00
43681;BME280;29281;50.356;30.894;2023-11-21T00:44:56;99769.09;;;-0.63;100.00
43681;BME280;29281;50.356;30.894;2023-11-21T00:46:06;99758.02;;;-0.71;100.00
43681;BME280;29281;50.356;30.894;2023-11-21T00:47:13;99763.20;;;-0.69;100.00
43681;BME280;29281;50.356;30.894;2023-11-21T00:48:17;99763.11;;;-0.66;100.00
43681;BME280;29281;50.356;30.894;2023-11-21T00:49:20;99766.57;;;-0.66;100.00
43681;BME280;29281;50.356;30.894;2023-11-21T00:50:24;99759.64;;;-0.67;100.00
43681;BME280;29281;50.356;30.894;2023-11-21T00:51:28;99768.41;;;-0.69;100.00
43681;BME280;29281;50.356;30.894;2023-11-21T00:52:32;99765.03;;;-0.73;100.00
43681;BME280;29281;50.356;30.894;2023-11-21T00:53:34;99771.02;;;-0.69;100.00
43681;BME280;29281;50.356;30.894;2023-11-21T00:54:38;99760.75;;;-0.76;100.00
43681;BME280;29281;50.356;30.894;2023-11-21T00:55:41;99768.64;;;-0.77;100.00
43681;BME280;29281;50.356;30.894;2023-11-21T00:56:47;99766.89;;;-0.77;100.00
43681;BME280;29281;50.356;30.894;2023-11-21T00:57:51;99769.55;;;-0.78;100.00
43681;BME280;29281;50.356;30.894;2023-11-21T00:58:54;99769.55;;;-0.78;100.00
43681;BME280;29281;50.356;30.894;2023-11-21T00:59:58;99767.14;;;-0.86;100.00
43681;BME280;29281;50.356;30.894;2023-11-21T01:01:02;99779.44;;;-0.91;100.00
43681;BME280;29281;50.356;30.894;2023-11-21T01:02:09;99774.33;;;-0.94;100.00
43681;BME280;29281;50.356;30.894;2023-11-21T01:03:15;99773.48;;;-0.94;100.00
43681;BME280;29281;50.356;30.894;2023-11-21T01:04:20;99781.19;;;-0.91;100.00
43681;BME280;29281;50.356;30.894;2023-11-21T01:05:24;99784.76;;;-0.94;100.00
43681;BME280;29281;50.356;30.894;2023-11-21T01:06:27;99777.75;;;-0.92;100.00
43681;BME280;29281;50.356;30.894;2023-11-21T01:07:32;99781.34;;;-0.96;100.00
43681;BME280;29281;50.356;30.894;2023-11-21T01:08:35;99777.17;;;-1.03;100.00
43681;BME280;29281;50.356;30.894;2023-11-21T01:09:40;99787.48;;;-0.98;100.00
43681;BME280;29281;50.356;30.894;2023-11-21T01:10:43;99782.16;;;-0.94;100.00
43681;BME280;29281;50.356;30.894;2023-11-21T01:11:46;99787.17;;;-0.88;100.00
43681;BME280;29281;50.356;30.894;2023-11-21T01:12:52;99788.18;;;-0.92;100.00
43681;BME280;29281;50.356;30.894;2023-11-21T01:13:57;99795.19;;;-0.94;100.00
43681;BME280;29281;50.356;30.894;2023-11-21T01:15:04;99792.39;;;-0.88;100.00
43681;BME280;29281;50.356;30.894;2023-11-21T01:16:12;99797.48;;;-0.83;100.00
43681;BME280;29281;50.356;30.894;2023-11-21T01:17:16;99801.03;;;-0.86;100.00
43681;BME280;29281;50.356;30.894;2023-11-21T01:18:20;99802.73;;;-0.85;100.00
43681;BME280;29281;50.356;30.894;2023-11-21T01:19:26;99801.03;;;-0.86;100.00
43681;BME280;29281;50.356;30.894;2023-11-21T01:20:33;99796.78;;;-0.90;100.00
43681;BME280;29281;50.356;30.894;2023-11-21T01:21:37;99802.00;;;-0.90;100.00
43681;BME280;29281;50.356;30.894;2023-11-21T01:22:41;99798.50;;;-0.89;100.00
43681;BME280;29281;50.356;30.894;2023-11-21T01:23:47;99794.29;;;-0.93;100.00
43681;BME280;29281;50.356;30.894;2023-11-21T01:24:54;99791.69;;;-0.93;100.00
43681;BME280;29281;50.356;30.894;2023-11-21T01:25:57;99796.83;;;-0.91;100.00
43681;BME280;29281;50.356;30.894;2023-11-21T01:27:02;99799.35;;;-0.88;100.00
43681;BME280;29281;50.356;30.894;2023-11-21T01:28:05;99798.54;;;-0.90;100.00
43681;BME280;29281;50.356;30.894;2023-11-21T01:29:10;99791.53;;;-0.88;100.00
43681;BME280;29281;50.356;30.894;2023-11-21T01:30:15;99795.93;;;-0.90;100.00
43681;BME280;29281;50.356;30.894;2023-11-21T01:31:22;99790.87;;;-0.95;100.00
43681;BME280;29281;50.356;30.894;2023-11-21T01:32:28;99794.33;;;-0.94;100.00
43681;BME280;29281;50.356;30.894;2023-11-21T01:33:33;99795.45;;;-1.04;100.00
43681;BME280;29281;50.356;30.894;2023-11-21T01:34:37;99790.39;;;-1.09;100.00
43681;BME280;29281;50.356;30.894;2023-11-21T01:35:41;99789.42;;;-1.07;100.00
43681;BME280;29281;50.356;30.894;2023-11-21T01:36:46;99787.01;;;-1.13;100.00
43681;BME280;29281;50.356;30.894;2023-11-21T01:37:51;99786.08;;;-1.10;100.00
43681;BME280;29281;50.356;30.894;2023-11-21T01:38:59;99792.14;;;-1.10;100.00
43681;BME280;29281;50.356;30.894;2023-11-21T01:40:02;99791.41;;;-1.15;100.00
43681;BME280;29281;50.356;30.894;2023-11-21T01:41:07;99783.47;;;-1.10;100.00
43681;BME280;29281;50.356;30.894;2023-11-21T01:42:13;99780.91;;;-1.12;100.00
43681;BME280;29281;50.356;30.894;2023-11-21T01:43:17;99773.94;;;-1.11;100.00
43681;BME280;29281;50.356;30.894;2023-11-21T01:44:22;99779.00;;;-1.07;100.00
43681;BME280;29281;50.356;30.894;2023-11-21T01:45:28;99775.50;;;-1.06;100.00
43681;BME280;29281;50.356;30.894;2023-11-21T01:46:35;99782.53;;;-1.08;100.00
43681;BME280;29281;50.356;30.894;2023-11-21T01:47:43;99779.86;;;-1.06;100.00
43681;BME280;29281;50.356;30.894;2023-11-21T01:48:48;99779.86;;;-1.06;100.00
43681;BME280;29281;50.356;30.894;2023-11-21T01:49:52;99786.97;;;-1.11;100.00
43681;BME280;29281;50.356;30.894;2023-11-21T01:50:57;99782.77;;;-1.17;100.00
43681;BME280;29281;50.356;30.894;2023-11-21T01:52:06;99783.66;;;-1.18;100.00
43681;BME280;29281;50.356;30.894;2023-11-21T01:53:12;99789.77;;;-1.19;100.00
43681;BME280;29281;50.356;30.894;2023-11-21T01:54:17;99786.19;;;-1.15;100.00
43681;BME280;29281;50.356;30.894;2023-11-21T01:55:21;99781.84;;;-1.14;100.00
43681;BME280;29281;50.356;30.894;2023-11-21T01:56:26;99784.52;;;-1.17;100.00
43681;BME280;29281;50.356;30.894;2023-11-21T01:57:30;99784.62;;;-1.22;100.00
43681;BME280;29281;50.356;30.894;2023-11-21T01:58:34;99789.80;;;-1.20;100.00
43681;BME280;29281;50.356;30.894;2023-11-21T01:59:38;99793.30;;;-1.21;100.00
43681;BME280;29281;50.356;30.894;2023-11-21T02:00:41;99790.84;;;-1.26;100.00
43681;BME280;29281;50.356;30.894;2023-11-21T02:01:45;99790.88;;;-1.27;100.00
43681;BME280;29281;50.356;30.894;2023-11-21T02:02:51;99792.55;;;-1.25;100.00
43681;BME280;29281;50.356;30.894;2023-11-21T02:03:56;99801.94;;;-1.19;100.00
43681;BME280;29281;50.356;30.894;2023-11-21T02:05:00;99802.83;;;-1.20;100.00
43681;BME280;29281;50.356;30.894;2023-11-21T02:06:07;99796.83;;;-1.22;100.00
43681;BME280;29281;50.356;30.894;2023-11-21T02:07:15;99795.02;;;-1.20;100.00
43681;BME280;29281;50.356;30.894;2023-11-21T02:08:19;99797.73;;;-1.23;100.00
43681;BME280;29281;50.356;30.894;2023-11-21T02:09:27;99799.55;;;-1.27;100.00
43681;BME280;29281;50.356;30.894;2023-11-21T02:10:34;99805.69;;;-1.29;100.00
43681;BME280;29281;50.356;30.894;2023-11-21T02:11:41;99802.27;;;-1.31;100.00
43681;BME280;29281;50.356;30.894;2023-11-21T02:12:44;99798.69;;;-1.27;100.00
43681;BME280;29281;50.356;30.894;2023-11-21T02:13:50;99803.91;;;-1.27;100.00
43681;BME280;29281;50.356;30.894;2023-11-21T02:14:59;99802.97;;;-1.25;100.00
43681;BME280;29281;50.356;30.894;2023-11-21T02:16:03;99803.05;;;-1.28;100.00
43681;BME280;29281;50.356;30.894;2023-11-21T02:17:09;99809.11;;;-1.27;100.00
43681;BME280;29281;50.356;30.894;2023-11-21T02:18:12;99804.02;;;-1.32;100.00
43681;BME280;29281;50.356;30.894;2023-11-21T02:19:21;99804.80;;;-1.28;100.00
43681;BME280;29281;50.356;30.894;2023-11-21T02:20:34;99816.18;;;-1.32;100.00
43681;BME280;29281;50.356;30.894;2023-11-21T02:21:39;99816.25;;;-1.35;100.00
43681;BME280;29281;50.356;30.894;2023-11-21T02:22:43;99816.14;;;-1.31;100.00
43681;BME280;29281;50.356;30.894;2023-11-21T02:23:47;99813.58;;;-1.32;100.00
43681;BME280;29281;50.356;30.894;2023-11-21T02:24:50;99822.32;;;-1.35;100.00
43681;BME280;29281;50.356;30.894;2023-11-21T02:25:53;99818.86;;;-1.35;100.00
43681;BME280;29281;50.356;30.894;2023-11-21T02:26:57;99824.03;;;-1.34;100.00
43681;BME280;29281;50.356;30.894;2023-11-21T02:28:00;99823.14;;;-1.33;100.00
43681;BME280;29281;50.356;30.894;2023-11-21T02:29:05;99811.05;;;-1.35;100.00
43681;BME280;29281;50.356;30.894;2023-11-21T02:30:10;99817.08;;;-1.33;100.00
43681;BME280;29281;50.356;30.894;2023-11-21T02:31:17;99820.61;;;-1.36;100.00
43681;BME280;29281;50.356;30.894;2023-11-21T02:32:21;99824.20;;;-1.40;100.00
43681;BME280;29281;50.356;30.894;2023-11-21T02:33:27;99820.78;;;-1.42;100.00
43681;BME280;29281;50.356;30.894;2023-11-21T02:34:30;99821.60;;;-1.40;100.00
43681;BME280;29281;50.356;30.894;2023-11-21T02:35:35;99821.74;;;-1.46;100.00
43681;BME280;29281;50.356;30.894;2023-11-21T02:36:40;99822.53;;;-1.43;100.00
43681;BME280;29281;50.356;30.894;2023-11-21T02:37:47;99816.53;;;-1.46;100.00
43681;BME280;29281;50.356;30.894;2023-11-21T02:38:51;99824.56;;;-1.54;100.00
43681;BME280;29281;50.356;30.894;2023-11-21T02:39:56;99822.81;;;-1.53;100.00
43681;BME280;29281;50.356;30.894;2023-11-21T02:40:59;99816.78;;;-1.55;100.00
43681;BME280;29281;50.356;30.894;2023-11-21T02:42:03;99819.39;;;-1.55;100.00
43681;BME280;29281;50.356;30.894;2023-11-21T02:43:08;99824.59;;;-1.55;100.00
43681;BME280;29281;50.356;30.894;2023-11-21T02:44:12;99824.38;;;-1.48;100.00
43681;BME280;29281;50.356;30.894;2023-11-21T02:45:15;99817.36;;;-1.44;100.00
43681;BME280;29281;50.356;30.894;2023-11-21T02:46:21;99813.04;;;-1.45;100.00
43681;BME280;29281;50.356;30.894;2023-11-21T02:47:24;99823.39;;;-1.42;100.00
43681;BME280;29281;50.356;30.894;2023-11-21T02:48:31;99815.64;;;-1.45;100.00
43681;BME280;29281;50.356;30.894;2023-11-21T02:49:35;99821.78;;;-1.48;100.00
43681;BME280;29281;50.356;30.894;2023-11-21T02:50:41;99818.28;;;-1.47;100.00
43681;BME280;29281;50.356;30.894;2023-11-21T02:51:46;99823.45;;;-1.45;100.00
43681;BME280;29281;50.356;30.894;2023-11-21T02:52:50;99822.64;;;-1.47;100.00
43681;BME280;29281;50.356;30.894;2023-11-21T02:53:58;99822.60;;;-1.46;100.00
43681;BME280;29281;50.356;30.894;2023-11-21T02:55:04;99837.34;;;-1.45;100.00
43681;BME280;29281;50.356;30.894;2023-11-21T02:56:08;99838.30;;;-1.49;100.00
43681;BME280;29281;50.356;30.894;2023-11-21T02:57:13;99839.26;;;-1.53;100.00
43681;BME280;29281;50.356;30.894;2023-11-21T02:58:16;99832.27;;;-1.51;100.00
43681;BME280;29281;50.356;30.894;2023-11-21T02:59:19;99832.13;;;-1.45;100.00
43681;BME280;29281;50.356;30.894;2023-11-21T03:00:26;99832.20;;;-1.48;100.00
43681;BME280;29281;50.356;30.894;2023-11-21T03:01:32;99832.20;;;-1.48;100.00
43681;BME280;29281;50.356;30.894;2023-11-21T03:02:36;99829.48;;;-1.43;100.00
43681;BME280;29281;50.356;30.894;2023-11-21T03:03:42;99833.84;;;-1.44;100.00
43681;BME280;29281;50.356;30.894;2023-11-21T03:04:48;99831.27;;;-1.45;100.00
43681;BME280;29281;50.356;30.894;2023-11-21T03:05:54;99838.16;;;-1.43;100.00
43681;BME280;29281;50.356;30.894;2023-11-21T03:06:58;99839.88;;;-1.42;100.00
43681;BME280;29281;50.356;30.894;2023-11-21T03:08:01;99843.47;;;-1.47;100.00
43681;BME280;29281;50.356;30.894;2023-11-21T03:09:04;99831.34;;;-1.48;100.00
43681;BME280;29281;50.356;30.894;2023-11-21T03:10:09;99843.47;;;-1.47;100.00
43681;BME280;29281;50.356;30.894;2023-11-21T03:11:14;99833.13;;;-1.50;100.00
43681;BME280;29281;50.356;30.894;2023-11-21T03:12:19;99844.64;;;-1.59;100.00
43681;BME280;29281;50.356;30.894;2023-11-21T03:13:23;99842.06;;;-1.60;100.00
43681;BME280;29281;50.356;30.894;2023-11-21T03:14:26;99841.07;;;-1.55;100.00
43681;BME280;29281;50.356;30.894;2023-11-21T03:15:31;99843.64;;;-1.53;100.00
43681;BME280;29281;50.356;30.894;2023-11-21T03:16:36;99850.46;;;-1.49;100.00
43681;BME280;29281;50.356;30.894;2023-11-21T03:17:42;99852.48;;;-1.60;100.00
43681;BME280;29281;50.356;30.894;2023-11-21T03:18:48;99847.41;;;-1.66;100.00
43681;BME280;29281;50.356;30.894;2023-11-21T03:19:52;99860.62;;;-1.74;100.00
43681;BME280;29281;50.356;30.894;2023-11-21T03:20:55;99863.22;;;-1.74;100.00
43681;BME280;29281;50.356;30.894;2023-11-21T03:22:02;99855.25;;;-1.68;100.00
43681;BME280;29281;50.356;30.894;2023-11-21T03:23:07;99861.21;;;-1.63;100.00
43681;BME280;29281;50.356;30.894;2023-11-21T03:24:13;99856.93;;;-1.65;100.00
43681;BME280;29281;50.356;30.894;2023-11-21T03:25:16;99860.39;;;-1.65;100.00
43681;BME280;29281;50.356;30.894;2023-11-21T03:26:20;99860.39;;;-1.65;100.00
43681;BME280;29281;50.356;30.894;2023-11-21T03:27:26;99860.39;;;-1.65;100.00
43681;BME280;29281;50.356;30.894;2023-11-21T03:28:31;99862.11;;;-1.64;100.00
43681;BME280;29281;50.356;30.894;2023-11-21T03:29:34;99865.59;;;-1.65;100.00
43681;BME280;29281;50.356;30.894;2023-11-21T03:30:39;99858.78;;;-1.69;100.00
43681;BME280;29281;50.356;30.894;2023-11-21T03:31:48;99869.35;;;-1.77;100.00
43681;BME280;29281;50.356;30.894;2023-11-21T03:32:52;99867.83;;;-1.85;100.00
43681;BME280;29281;50.356;30.894;2023-11-21T03:33:55;99863.55;;;-1.88;100.00
43681;BME280;29281;50.356;30.894;2023-11-21T03:34:58;99866.09;;;-1.85;100.00
43681;BME280;29281;50.356;30.894;2023-11-21T03:36:02;99861.83;;;-1.89;100.00
43681;BME280;29281;50.356;30.894;2023-11-21T03:37:05;99860.98;;;-1.89;100.00
43681;BME280;29281;50.356;30.894;2023-11-21T03:38:09;99859.99;;;-1.84;100.00
43681;BME280;29281;50.356;30.894;2023-11-21T03:39:13;99859.86;;;-1.79;100.00
43681;BME280;29281;50.356;30.894;2023-11-21T03:40:17;99856.41;;;-1.80;100.00
43681;BME280;29281;50.356;30.894;2023-11-21T03:41:20;99860.02;;;-1.85;100.00
43681;BME280;29281;50.356;30.894;2023-11-21T03:42:24;99859.39;;;-1.96;100.00
43681;BME280;29281;50.356;30.894;2023-11-21T03:43:31;99858.69;;;-2.03;100.00
43681;BME280;29281;50.356;30.894;2023-11-21T03:44:34;99852.66;;;-2.05;100.00
43681;BME280;29281;50.356;30.894;2023-11-21T03:45:39;99854.19;;;-1.96;100.00
43681;BME280;29281;50.356;30.894;2023-11-21T03:46:45;99855.84;;;-1.92;100.00
43681;BME280;29281;50.356;30.894;2023-11-21T03:47:49;99853.13;;;-1.88;100.00
43681;BME280;29281;50.356;30.894;2023-11-21T03:48:53;99853.11;;;-1.86;100.00
43681;BME280;29281;50.356;30.894;2023-11-21T03:49:59;99859.92;;;-1.82;100.00
43681;BME280;29281;50.356;30.894;2023-11-21T03:51:05;99853.86;;;-1.83;100.00
43681;BME280;29281;50.356;30.894;2023-11-21T03:52:11;99858.97;;;-1.78;100.00
43681;BME280;29281;50.356;30.894;2023-11-21T03:53:15;99849.35;;;-1.74;100.00
43681;BME280;29281;50.356;30.894;2023-11-21T03:54:18;99846.81;;;-1.78;100.00
43681;BME280;29281;50.356;30.894;2023-11-21T03:55:21;99845.27;;;-1.85;100.00
43681;BME280;29281;50.356;30.894;2023-11-21T03:56:24;99845.06;;;-1.77;100.00
43681;BME280;29281;50.356;30.894;2023-11-21T03:57:29;99847.54;;;-1.71;100.00
43681;BME280;29281;50.356;30.894;2023-11-21T03:58:33;99839.80;;;-1.74;100.00
43681;BME280;29281;50.356;30.894;2023-11-21T03:59:39;99845.86;;;-1.73;100.00
43681;BME280;29281;50.356;30.894;2023-11-21T04:00:47;99844.97;;;-1.72;100.00
43681;BME280;29281;50.356;30.894;2023-11-21T04:01:52;99839.80;;;-1.74;100.00
43681;BME280;29281;50.356;30.894;2023-11-21T04:02:56;99843.32;;;-1.77;100.00
43681;BME280;29281;50.356;30.894;2023-11-21T04:04:00;99840.81;;;-1.81;100.00
43681;BME280;29281;50.356;30.894;2023-11-21T04:05:04;99850.14;;;-1.71;100.00
43681;BME280;29281;50.356;30.894;2023-11-21T04:06:09;99851.92;;;-1.73;100.00
43681;BME280;29281;50.356;30.894;2023-11-21T04:07:14;99844.08;;;-1.71;100.00
43681;BME280;29281;50.356;30.894;2023-11-21T04:08:17;99848.27;;;-1.66;100.00
43681;BME280;29281;50.356;30.894;2023-11-21T04:09:22;99845.59;;;-1.63;100.00
43681;BME280;29281;50.356;30.894;2023-11-21T04:10:27;99847.30;;;-1.62;100.00
43681;BME280;29281;50.356;30.894;2023-11-21T04:11:32;99849.91;;;-1.62;100.00
43681;BME280;29281;50.356;30.894;2023-11-21T04:12:36;99850.73;;;-1.60;100.00
43681;BME280;29281;50.356;30.894;2023-11-21T04:13:39;99848.27;;;-1.66;100.00
43681;BME280;29281;50.356;30.894;2023-11-21T04:14:45;99850.14;;;-1.71;100.00
43681;BME280;29281;50.356;30.894;2023-11-21T04:15:49;99845.92;;;-1.77;100.00
43681;BME280;29281;50.356;30.894;2023-11-21T04:16:54;99851.03;;;-1.72;100.00
43681;BME280;29281;50.356;30.894;2023-11-21T04:17:58;99868.69;;;-1.85;100.00
43681;BME280;29281;50.356;30.894;2023-11-21T04:19:02;99872.24;;;-1.89;100.00
43681;BME280;29281;50.356;30.894;2023-11-21T04:20:08;99872.08;;;-1.83;100.00
43681;BME280;29281;50.356;30.894;2023-11-21T04:21:13;99877.48;;;-1.90;100.00
43681;BME280;29281;50.356;30.894;2023-11-21T04:22:15;99874.02;;;-1.91;100.00
43681;BME280;29281;50.356;30.894;2023-11-21T04:23:20;99876.40;;;-1.82;100.00
43681;BME280;29281;50.356;30.894;2023-11-21T04:24:24;99881.57;;;-1.80;100.00
43681;BME280;29281;50.356;30.894;2023-11-21T04:25:28;99885.80;;;-1.74;100.00
43681;BME280;29281;50.356;30.894;2023-11-21T04:26:32;99879.70;;;-1.73;100.00
43681;BME280;29281;50.356;30.894;2023-11-21T04:27:34;99890.94;;;-1.71;100.00
43681;BME280;29281;50.356;30.894;2023-11-21T04:28:38;99882.30;;;-1.73;100.00
43681;BME280;29281;50.356;30.894;2023-11-21T04:29:42;99888.50;;;-1.79;100.00
43681;BME280;29281;50.356;30.894;2023-11-21T04:30:48;99891.03;;;-1.76;100.00
43681;BME280;29281;50.356;30.894;2023-11-21T04:31:52;99891.89;;;-1.75;100.00
43681;BME280;29281;50.356;30.894;2023-11-21T04:32:55;99900.49;;;-1.72;100.00
43681;BME280;29281;50.356;30.894;2023-11-21T04:33:59;99887.55;;;-1.75;100.00
43681;BME280;29281;50.356;30.894;2023-11-21T04:35:05;99892.75;;;-1.75;100.00
43681;BME280;29281;50.356;30.894;2023-11-21T04:36:10;99892.72;;;-1.73;100.00
43681;BME280;29281;50.356;30.894;2023-11-21T04:37:14;99896.17;;;-1.73;100.00
43681;BME280;29281;50.356;30.894;2023-11-21T04:38:18;99894.59;;;-1.80;100.00
43681;BME280;29281;50.356;30.894;2023-11-21T04:39:25;99905.77;;;-1.75;100.00
43681;BME280;29281;50.356;30.894;2023-11-21T04:40:29;99897.83;;;-1.69;100.00
43681;BME280;29281;50.356;30.894;2023-11-21T04:41:33;99905.57;;;-1.67;100.00
43681;BME280;29281;50.356;30.894;2023-11-21T04:42:37;99895.95;;;-1.64;100.00
43681;BME280;29281;50.356;30.894;2023-11-21T04:43:42;99897.92;;;-1.73;100.00
43681;BME280;29281;50.356;30.894;2023-11-21T04:44:46;99905.48;;;-1.63;100.00
43681;BME280;29281;50.356;30.894;2023-11-21T04:45:50;99904.36;;;-1.53;100.00
43681;BME280;29281;50.356;30.894;2023-11-21T04:46:53;99890.31;;;-1.46;100.00
43681;BME280;29281;50.356;30.894;2023-11-21T04:47:57;99900.08;;;-1.54;100.00
43681;BME280;29281;50.356;30.894;2023-11-21T04:49:04;99902.21;;;-1.35;100.00
43681;BME280;29281;50.356;30.894;2023-11-21T04:50:08;99902.97;;;-1.30;100.00
43681;BME280;29281;50.356;30.894;2023-11-21T04:51:11;99906.66;;;-1.39;100.00
43681;BME280;29281;50.356;30.894;2023-11-21T04:52:17;99906.36;;;-1.27;100.00
43681;BME280;29281;50.356;30.894;2023-11-21T04:53:24;99905.19;;;-1.15;100.00
43681;BME280;29281;50.356;30.894;2023-11-21T04:54:30;99910.33;;;-1.12;100.00
43681;BME280;29281;50.356;30.894;2023-11-21T04:55:34;99911.98;;;-1.08;100.00
43681;BME280;29281;50.356;30.894;2023-11-21T04:56:38;99917.73;;;-0.95;100.00
43681;BME280;29281;50.356;30.894;2023-11-21T04:57:41;99917.13;;;-1.07;100.00
43681;BME280;29281;50.356;30.894;2023-11-21T04:58:46;99916.13;;;-1.01;100.00
43681;BME280;29281;50.356;30.894;2023-11-21T04:59:50;99920.16;;;-0.89;100.00
43681;BME280;29281;50.356;30.894;2023-11-21T05:00:53;99920.80;;;-0.80;100.00
43681;BME280;29281;50.356;30.894;2023-11-21T05:01:57;99915.58;;;-0.80;100.00
43681;BME280;29281;50.356;30.894;2023-11-21T05:03:01;99917.30;;;-0.79;100.00
43681;BME280;29281;50.356;30.894;2023-11-21T05:04:05;99921.36;;;-0.68;100.00
43681;BME280;29281;50.356;30.894;2023-11-21T05:05:10;99918.75;;;-0.68;100.00
43681;BME280;29281;50.356;30.894;2023-11-21T05:06:14;99920.39;;;-0.64;100.00
43681;BME280;29281;50.356;30.894;2023-11-21T05:07:18;99917.56;;;-0.57;100.00
43681;BME280;29281;50.356;30.894;2023-11-21T05:08:22;99922.73;;;-0.55;100.00
43681;BME280;29281;50.356;30.894;2023-11-21T05:09:26;99930.64;;;-0.58;100.00
43681;BME280;29281;50.356;30.894;2023-11-21T05:10:31;99925.61;;;-0.64;100.00
43681;BME280;29281;50.356;30.894;2023-11-21T05:11:35;99928.40;;;-0.72;100.00
43681;BME280;29281;50.356;30.894;2023-11-21T05:12:39;99934.40;;;-0.68;100.00
43681;BME280;29281;50.356;30.894;2023-11-21T05:13:43;99934.95;;;-0.57;100.00
43681;BME280;29281;50.356;30.894;2023-11-21T05:14:46;99932.16;;;-0.50;100.00
43681;BME280;29281;50.356;30.894;2023-11-21T05:15:49;99930.38;;;-0.48;100.00
43681;BME280;29281;50.356;30.894;2023-11-21T05:16:54;99932.94;;;-0.46;100.00
43681;BME280;29281;50.356;30.894;2023-11-21T05:18:00;99934.63;;;-0.45;100.00
43681;BME280;29281;50.356;30.894;2023-11-21T05:19:03;99931.16;;;-0.46;100.00
43681;BME280;29281;50.356;30.894;2023-11-21T05:20:08;99938.34;;;-0.54;100.00
43681;BME280;29281;50.356;30.894;2023-11-21T05:21:12;99940.99;;;-0.55;100.00
43681;BME280;29281;50.356;30.894;2023-11-21T05:22:15;99940.77;;;-0.46;100.00
43681;BME280;29281;50.356;30.894;2023-11-21T05:23:24;99935.55;;;-0.46;100.00
43681;BME280;29281;50.356;30.894;2023-11-21T05:24:28;99945.72;;;-0.37;100.00
43681;BME280;29281;50.356;30.894;2023-11-21T05:25:31;99937.97;;;-0.40;100.00
43681;BME280;29281;50.356;30.894;2023-11-21T05:26:37;99943.92;;;-0.35;100.00
43681;BME280;29281;50.356;30.894;2023-11-21T05:27:42;99945.56;;;-0.31;100.00
43681;BME280;29281;50.356;30.894;2023-11-21T05:28:48;99941.09;;;-0.27;100.00
43681;BME280;29281;50.356;30.894;2023-11-21T05:29:51;99951.61;;;-0.30;100.00
43681;BME280;29281;50.356;30.894;2023-11-21T05:30:59;99943.22;;;-0.42;100.00
43681;BME280;29281;50.356;30.894;2023-11-21T05:32:05;99946.61;;;-0.38;100.00
43681;BME280;29281;50.356;30.894;2023-11-21T05:33:09;99942.13;;;-0.33;100.00
43681;BME280;29281;50.356;30.894;2023-11-21T05:34:13;99951.09;;;-0.43;100.00